Time;durP1;ratioP1;P1;durP2;ratioP2;P2;SDS_P1;SDS_P2;PMS_P1;PMS_P2;Temp;Humidity;BMP_temperature;BMP_pressure;BME280_temperature;BME280_humidity;BME280_pressure;Samples;Min_cycle;Max_cycle;Signal;HPM_P1;HPM_P2
2022/03/08 00:01:36;;;;;;;;;83.67;62.33;;;;;0.64;61.66;99971.53;6315866;20;3647114;-53
2022/03/08 00:04:04;;;;;;;;;68.50;53.50;;;;;0.93;60.17;99981.59;6311675;20;2500314;-52
2022/03/08 00:06:33;;;;;;;;;66.00;53.50;;;;;0.27;60.23;99973.88;6283714;20;2871336;-56
2022/03/08 00:09:02;;;;;;;;;56.50;45.50;;;;;1.05;57.68;99978.75;6280954;20;2846153;-55
2022/03/08 00:11:29;;;;;;;;;62.00;47.50;;;;;1.25;55.69;99978.34;6282489;20;2508690;-53
2022/03/08 00:13:57;;;;;;;;;68.00;46.00;;;;;1.32;56.93;99973.84;6278934;20;2508589;-53
2022/03/08 00:16:26;;;;;;;;;57.50;42.50;;;;;1.37;55.67;99961.41;6283261;20;2859716;-55
2022/03/08 00:18:55;;;;;;;;;48.00;32.00;;;;;1.43;54.40;99963.91;6280420;20;2871149;-53
2022/03/08 00:21:24;;;;;;;;;56.50;40.00;;;;;1.44;54.83;99968.28;6281596;20;2869052;-54
2022/03/08 00:23:53;;;;;;;;;52.00;41.50;;;;;1.51;54.39;99975.22;6282794;20;2847215;-57
2022/03/08 00:26:23;;;;;;;;;49.50;41.50;;;;;1.47;54.60;99968.22;6284442;20;2874214;-56
2022/03/08 00:28:52;;;;;;;;;40.00;38.00;;;;;1.15;55.24;99979.44;6284078;20;2859629;-54
2022/03/08 00:31:21;;;;;;;;;49.50;41.00;;;;;1.23;55.10;99976.63;6284148;20;2874231;-56
2022/03/08 00:33:48;;;;;;;;;42.00;36.50;;;;;1.33;55.26;99982.63;6280512;20;2502330;-56
2022/03/08 00:36:17;;;;;;;;;62.00;46.00;;;;;1.33;55.57;99982.63;6282517;20;2866167;-56
2022/03/08 00:38:47;;;;;;;;;60.33;46.33;;;;;1.14;55.43;99992.69;6282800;20;2870034;-56
2022/03/08 00:41:17;;;;;;;;;56.67;43.00;;;;;1.34;55.83;99993.16;6315616;20;2894219;-53
2022/03/08 00:43:46;;;;;;;;;43.00;37.00;;;;;1.04;63.05;99995.50;6313324;20;2878377;-55
2022/03/08 00:46:15;;;;;;;;;43.00;37.00;;;;;1.24;64.38;99983.69;6281010;20;2502606;-55
2022/03/08 00:48:44;;;;;;;;;32.00;29.00;;;;;1.04;64.35;99965.53;6278401;20;2500307;-60
2022/03/08 00:51:12;;;;;;;;;43.00;35.50;;;;;0.56;65.33;99969.00;6278894;20;2500352;-55
2022/03/08 00:53:41;;;;;;;;;44.00;39.00;;;;;0.97;66.45;99964.75;6282018;20;2865883;-46
2022/03/08 00:56:10;;;;;;;;;51.00;39.50;;;;;0.95;67.08;99966.59;6282623;20;2885681;-44
2022/03/08 00:58:38;;;;;;;;;40.50;36.00;;;;;0.78;67.72;99958.06;6278477;20;2500244;-48
2022/03/08 01:01:06;;;;;;;;;48.00;38.00;;;;;0.84;66.77;99957.94;6279063;20;2500685;-45
2022/03/08 01:03:34;;;;;;;;;37.00;33.00;;;;;0.49;68.74;99951.50;6278625;20;2500286;-45
2022/03/08 01:06:02;;;;;;;;;43.50;34.00;;;;;0.61;69.56;99948.66;6281205;20;2500433;-45
2022/03/08 01:08:30;;;;;;;;;45.00;40.50;;;;;0.61;68.01;99951.31;6277337;20;2500277;-44
2022/03/08 01:10:58;;;;;;;;;44.00;38.00;;;;;0.43;69.15;99946.34;6280479;20;2500249;-45
2022/03/08 01:13:26;;;;;;;;;41.00;34.00;;;;;0.04;69.83;99953.97;6278720;20;2500263;-45
2022/03/08 01:15:54;;;;;;;;;47.00;38.00;;;;;-0.03;71.17;99949.66;6277161;20;2500299;-44
2022/03/08 01:18:24;;;;;;;;;46.50;39.00;;;;;-0.26;70.62;99947.34;6283360;20;2855492;-44
2022/03/08 01:20:53;;;;;;;;;41.50;35.50;;;;;-0.30;71.44;99943.88;6282302;20;2836714;-55
2022/03/08 01:23:20;;;;;;;;;59.00;37.00;;;;;0.07;69.69;99942.47;6275635;20;2500370;-55
2022/03/08 01:25:48;;;;;;;;;39.50;35.00;;;;;-0.14;70.64;99946.31;6278887;20;2500250;-55
2022/03/08 01:28:16;;;;;;;;;50.50;43.00;;;;;-0.29;71.19;99943.00;6280075;20;2500418;-55
2022/03/08 01:30:44;;;;;;;;;64.00;50.00;;;;;-0.20;69.54;99941.97;6276091;20;2508624;-57
2022/03/08 01:33:14;;;;;;;;;70.00;51.00;;;;;-0.20;67.01;99946.41;6280856;20;2881515;-55
2022/03/08 01:35:42;;;;;;;;;72.50;53.50;;;;;-0.16;67.35;99938.38;6279214;20;2512770;-56
2022/03/08 01:38:11;;;;;;;;;72.00;54.33;;;;;-0.10;67.76;99940.97;6277488;20;2881626;-53
2022/03/08 01:40:41;;;;;;;;;69.33;52.00;;;;;-0.27;66.67;99937.69;6310884;20;2867987;-54
2022/03/08 01:43:09;;;;;;;;;69.00;51.50;;;;;-0.27;67.07;99946.47;6310929;20;2492035;-55
2022/03/08 01:45:38;;;;;;;;;70.33;51.00;;;;;-0.17;65.65;99943.72;6281962;20;2884811;-53
2022/03/08 01:48:07;;;;;;;;;71.50;54.50;;;;;-0.39;66.64;99940.50;6312861;20;2868027;-53
2022/03/08 01:50:36;;;;;;;;;64.50;51.50;;;;;-0.65;69.04;99936.41;6276042;20;2498187;-52
2022/03/08 01:53:04;;;;;;;;;68.00;50.50;;;;;-0.69;68.78;99939.97;6278096;20;2498282;-54
2022/03/08 01:55:33;;;;;;;;;67.00;52.00;;;;;-0.50;67.76;99940.59;6275003;20;2502773;-50
2022/03/08 01:58:02;;;;;;;;;63.00;50.00;;;;;-0.40;66.57;99938.72;6281566;20;2864819;-52
2022/03/08 02:00:32;;;;;;;;;70.00;50.50;;;;;-0.20;65.98;99941.13;6277183;20;2877372;-53
2022/03/08 02:03:02;;;;;;;;;67.50;50.00;;;;;-0.12;66.29;99948.03;6281875;20;2870067;-55
2022/03/08 02:05:31;;;;;;;;;48.00;44.00;;;;;-0.18;66.35;99947.25;6281985;20;2871191;-55
2022/03/08 02:08:00;;;;;;;;;65.00;50.00;;;;;-0.27;66.79;99948.22;6281604;20;2870163;-55
2022/03/08 02:10:30;;;;;;;;;67.00;47.33;;;;;-0.11;66.42;99954.16;6274675;20;2876270;-52
2022/03/08 02:12:59;;;;;;;;;65.50;50.00;;;;;-0.10;65.28;99954.16;6312348;20;2861721;-52
2022/03/08 02:15:30;;;;;;;;;60.67;43.33;;;;;-0.09;65.43;99958.53;6279648;20;3626256;-55
2022/03/08 02:18:00;;;;;;;;;56.00;44.50;;;;;0.06;63.39;99952.19;6311101;20;2871154;-52
2022/03/08 02:20:30;;;;;;;;;61.00;46.50;;;;;-0.32;64.68;99950.06;6278614;20;2849766;-54
2022/03/08 02:23:00;;;;;;;;;61.00;46.50;;;;;-0.30;65.97;99949.13;6278144;20;2849305;-53
2022/03/08 02:25:28;;;;;;;;;48.50;45.50;;;;;-0.36;66.93;99945.72;6277126;20;2508599;-53
2022/03/08 02:27:57;;;;;;;;;73.50;51.00;;;;;-0.13;63.80;99940.13;6281902;20;2881488;-53
2022/03/08 02:30:27;;;;;;;;;63.50;47.00;;;;;0.36;61.84;99948.19;6277845;20;2867984;-52
2022/03/08 02:32:56;;;;;;;;;61.50;49.00;;;;;0.03;63.14;99941.66;6277746;20;2500305;-53
2022/03/08 02:35:30;;;;;;;;;68.50;51.00;;;;;0.28;60.79;99936.88;6279288;20;2872151;-51
2022/03/08 02:38:06;;;;;;;;;65.50;48.50;;;;;-0.04;61.68;99940.00;6277622;20;2870220;-50
2022/03/08 02:40:43;;;;;;;;;66.00;46.00;;;;;0.28;61.03;99941.28;6278664;20;2865994;-54
2022/03/08 02:43:14;;;;;;;;;58.00;45.33;;;;;-0.17;61.77;99944.56;6312383;20;2878403;-53
2022/03/08 02:45:43;;;;;;;;;40.50;34.50;;;;;-0.10;62.54;99942.75;6311359;20;2864857;-51
2022/03/08 02:48:12;;;;;;;;;67.00;49.33;;;;;-0.25;62.31;99942.03;6281392;20;3609621;-53
2022/03/08 02:50:41;;;;;;;;;71.50;53.00;;;;;-0.26;63.19;99940.31;6279314;20;2882567;-54
2022/03/08 02:53:10;;;;;;;;;66.00;46.00;;;;;-0.37;63.02;99944.84;6279776;20;2881501;-54
2022/03/08 02:55:38;;;;;;;;;76.50;57.50;;;;;-0.29;63.04;99940.34;6275626;20;2495157;-55
2022/03/08 02:58:07;;;;;;;;;72.00;58.00;;;;;-0.61;63.87;99947.78;6280742;20;2873230;-55
2022/03/08 03:00:36;;;;;;;;;75.50;54.00;;;;;-0.78;64.43;99942.72;6274740;20;2496235;-51
2022/03/08 03:03:06;;;;;;;;;77.00;52.33;;;;;-0.57;63.26;99944.22;6275018;20;2888999;-54
2022/03/08 03:05:35;;;;;;;;;64.50;49.00;;;;;-0.36;62.79;99943.97;6309375;20;2499270;-55
2022/03/08 03:08:08;;;;;;;;;59.50;47.00;;;;;-0.14;62.26;99943.66;6279870;20;2848191;-54
2022/03/08 03:10:37;;;;;;;;;51.50;45.50;;;;;-0.16;61.95;99941.03;6276105;20;2500269;-55
2022/03/08 03:13:06;;;;;;;;;67.00;46.00;;;;;-0.17;61.75;99949.00;6279308;20;2891980;-55
2022/03/08 03:15:35;;;;;;;;;66.00;46.50;;;;;-0.70;63.50;99954.91;6306908;20;2869051;-54
2022/03/08 03:18:10;;;;;;;;;50.00;44.00;;;;;-0.59;63.60;99951.28;6276193;20;2500288;-55
2022/03/08 03:20:39;;;;;;;;;63.00;43.50;;;;;-0.98;65.09;99948.19;6276223;20;2871191;-55
2022/03/08 03:23:07;;;;;;;;;56.00;43.00;;;;;-0.88;64.79;99949.84;6286082;20;2600277;-55
2022/03/08 03:25:36;;;;;;;;;67.00;49.00;;;;;-0.78;63.90;99951.50;6285510;20;2882638;-54
2022/03/08 03:28:06;;;;;;;;;72.00;49.33;;;;;-0.96;64.17;99955.19;6285427;20;2888823;-55
2022/03/08 03:30:34;;;;;;;;;68.00;50.00;;;;;-0.82;63.66;99948.91;6311981;20;2850290;-54
2022/03/08 03:33:04;;;;;;;;;67.00;46.00;;;;;-0.91;64.07;99952.53;6285225;20;2856512;-54
2022/03/08 03:35:32;;;;;;;;;64.50;47.00;;;;;-0.80;63.75;99955.91;6284990;20;2876312;-55
2022/03/08 03:38:01;;;;;;;;;76.00;55.50;;;;;-0.94;63.53;99955.19;6280394;20;2880570;-53
2022/03/08 03:40:30;;;;;;;;;41.67;40.00;;;;;-0.75;63.65;99962.00;6282729;20;3597169;-52
2022/03/08 03:42:58;;;;;;;;;61.00;46.00;;;;;-0.80;63.75;99965.56;6277351;20;2504429;-54
2022/03/08 03:45:28;;;;;;;;;65.00;43.67;;;;;-1.08;64.28;99964.97;6283011;20;3643093;-55
2022/03/08 03:47:56;;;;;;;;;48.00;42.50;;;;;-0.82;64.25;99964.72;6310216;20;2500306;-53
2022/03/08 03:50:24;;;;;;;;;57.00;44.00;;;;;-0.98;64.23;99958.72;6280105;20;2500286;-53
2022/03/08 03:52:52;;;;;;;;;46.50;37.50;;;;;-0.79;63.96;99960.31;6279764;20;2500321;-53
2022/03/08 03:55:21;;;;;;;;;58.50;47.00;;;;;-0.75;63.53;99963.78;6283852;20;2861776;-53
2022/03/08 03:57:49;;;;;;;;;47.50;44.00;;;;;-0.82;63.75;99954.16;6279574;20;2500253;-55
2022/03/08 04:00:18;;;;;;;;;50.00;39.00;;;;;-0.81;64.17;99962.06;6280378;20;2873265;-53
2022/03/08 04:02:46;;;;;;;;;52.00;42.00;;;;;-0.88;64.12;99960.38;6279342;20;2500301;-51
2022/03/08 04:05:14;;;;;;;;;60.50;46.00;;;;;-0.78;63.41;99959.41;6279275;20;2500569;-54
2022/03/08 04:07:43;;;;;;;;;51.50;42.00;;;;;-0.64;63.75;99958.38;6281364;20;2500273;-55
2022/03/08 04:10:15;;;;;;;;;55.00;45.50;;;;;-0.92;64.11;99956.06;6282465;20;2876281;-50
2022/03/08 04:12:44;;;;;;;;;64.50;49.00;;;;;-0.83;63.92;99953.31;6280806;20;2847155;-55
2022/03/08 04:15:12;;;;;;;;;64.50;52.00;;;;;-0.87;63.73;99951.56;6280054;20;2508660;-54
2022/03/08 04:17:41;;;;;;;;;52.33;38.33;;;;;-1.11;65.11;99956.25;6282661;20;2880041;-55
2022/03/08 04:20:11;;;;;;;;;56.50;46.50;;;;;-1.11;64.70;99952.72;6312048;20;2858633;-55
2022/03/08 04:22:40;;;;;;;;;56.00;47.00;;;;;-0.94;64.46;99953.41;6294767;20;2843998;-55
2022/03/08 04:25:09;;;;;;;;;52.50;45.00;;;;;-1.61;66.88;99954.91;6278997;20;2508582;-53
2022/03/08 04:27:38;;;;;;;;;66.33;52.00;;;;;-0.84;65.38;99951.56;6285058;20;3599232;-56
2022/03/08 04:30:10;;;;;;;;;65.67;49.00;;;;;-0.99;64.99;99946.47;6284681;20;2878401;-49
2022/03/08 04:32:39;;;;;;;;;54.00;38.50;;;;;-1.02;64.79;99944.72;6314559;20;2878357;-54
2022/03/08 04:35:08;;;;;;;;;57.00;47.00;;;;;-1.25;65.87;99939.69;6281975;20;2500300;-53
2022/03/08 04:37:38;;;;;;;;;69.33;43.67;;;;;-0.81;65.00;99946.25;6283881;20;3640913;-55
2022/03/08 04:40:08;;;;;;;;;73.50;54.00;;;;;-0.74;64.10;99942.69;6311750;20;2521346;-54
2022/03/08 04:42:40;;;;;;;;;104.67;76.67;;;;;-1.30;65.53;99952.03;6285029;20;3671182;-52
2022/03/08 04:45:11;;;;;;;;;75.50;54.50;;;;;-1.01;65.19;99949.09;6308711;20;2495043;-53
2022/03/08 04:47:39;;;;;;;;;67.00;51.00;;;;;-1.18;65.75;99946.66;6285813;20;2579444;-54
2022/03/08 04:50:16;;;;;;;;;83.00;54.00;;;;;-1.54;66.75;99947.84;6280032;20;2897438;-54
2022/03/08 04:52:48;;;;;;;;;74.00;52.00;;;;;-1.06;65.37;99944.75;6314363;20;2896112;-56
2022/03/08 04:55:20;;;;;;;;;61.00;44.67;;;;;-1.00;65.22;99949.97;6285010;20;2885977;-54
2022/03/08 04:57:48;;;;;;;;;61.00;50.50;;;;;-1.41;66.60;99951.25;6313002;20;2845074;-53
2022/03/08 05:00:17;;;;;;;;;51.50;44.50;;;;;-1.34;66.64;99948.56;6280524;20;2504620;-55
2022/03/08 05:02:46;;;;;;;;;59.50;41.50;;;;;-1.47;66.72;99948.69;6279916;20;2502837;-55
2022/03/08 05:05:16;;;;;;;;;60.67;46.67;;;;;-0.98;65.84;99948.19;6282035;20;2875300;-44
2022/03/08 05:07:45;;;;;;;;;53.00;44.00;;;;;-0.94;65.58;99939.38;6311702;20;2873196;-43
2022/03/08 05:10:14;;;;;;;;;46.50;44.00;;;;;-0.89;65.35;99932.28;6278797;20;2858621;-45
2022/03/08 05:12:43;;;;;;;;;58.50;45.00;;;;;-1.30;65.72;99946.75;6280539;20;2500246;-55
2022/03/08 05:15:11;;;;;;;;;48.00;36.00;;;;;-1.39;67.18;99941.59;6282311;20;2854445;-44
2022/03/08 05:17:40;;;;;;;;;75.50;56.50;;;;;-1.03;66.29;99939.47;6280325;20;2879431;-43
2022/03/08 05:20:11;;;;;;;;;88.33;60.67;;;;;-0.91;66.06;99934.94;6277637;20;3669111;-45
2022/03/08 05:22:39;;;;;;;;;73.50;53.00;;;;;-0.81;65.18;99935.72;6312004;20;2498189;-43
2022/03/08 05:25:10;;;;;;;;;63.50;47.00;;;;;-0.83;65.73;99936.63;6280967;20;2846211;-44
2022/03/08 05:27:40;;;;;;;;;53.33;40.00;;;;;-0.49;64.58;99931.81;6280438;20;2880479;-43
2022/03/08 05:30:10;;;;;;;;;56.00;44.00;;;;;-0.52;64.38;99942.41;6315358;20;2834764;-44
2022/03/08 05:32:38;;;;;;;;;55.00;43.50;;;;;-0.61;64.82;99937.22;6281139;20;2500376;-43
2022/03/08 05:35:08;;;;;;;;;66.67;45.00;;;;;-0.42;64.07;99949.31;6285632;20;2882785;-42
2022/03/08 05:37:37;;;;;;;;;56.00;46.50;;;;;-0.53;64.93;99951.19;6315248;20;2872137;-43
2022/03/08 05:40:08;;;;;;;;;55.67;39.33;;;;;-0.36;64.09;99957.16;6283625;20;2896165;-43
2022/03/08 05:42:39;;;;;;;;;52.50;44.50;;;;;-0.59;64.21;99952.16;6309009;20;2500293;-43
2022/03/08 05:45:10;;;;;;;;;52.00;42.00;;;;;-0.27;63.85;99954.38;6280758;20;2504479;-45
2022/03/08 05:47:41;;;;;;;;;50.50;45.50;;;;;-0.23;63.87;99957.88;6282202;20;2857564;-44
2022/03/08 05:50:11;;;;;;;;;66.00;52.00;;;;;-0.28;64.16;99960.56;6282017;20;2864934;-42
2022/03/08 05:52:40;;;;;;;;;60.00;48.00;;;;;-0.48;65.29;99962.56;6282428;20;2503383;-43
2022/03/08 05:55:10;;;;;;;;;61.50;48.00;;;;;-0.86;66.34;99966.53;6282604;20;2881561;-42
2022/03/08 05:57:39;;;;;;;;;73.00;52.00;;;;;-0.53;65.08;99967.00;6282264;20;2875277;-41
2022/03/08 06:00:09;;;;;;;;;65.00;50.50;;;;;-0.54;65.10;99970.56;6278598;20;2503420;-43
2022/03/08 06:02:39;;;;;;;;;55.00;44.50;;;;;-0.63;65.29;99975.91;6282292;20;2876486;-43
2022/03/08 06:05:09;;;;;;;;;56.50;43.00;;;;;-0.53;65.21;99972.28;6290633;20;2876326;-45
2022/03/08 06:07:37;;;;;;;;;45.00;33.00;;;;;-0.31;64.60;99971.16;6279918;20;2502808;-44
2022/03/08 06:10:09;;;;;;;;;59.00;42.00;;;;;-0.49;65.53;99976.66;6284405;20;2893079;-44
2022/03/08 06:12:38;;;;;;;;;67.33;44.67;;;;;-0.23;64.24;99974.56;6314448;20;2879699;-43
2022/03/08 06:15:08;;;;;;;;;64.00;49.00;;;;;-0.33;65.43;99975.56;6315154;20;2858611;-43
2022/03/08 06:17:38;;;;;;;;;66.00;45.50;;;;;-0.06;63.88;99978.72;6284036;20;2862846;-44
2022/03/08 06:20:07;;;;;;;;;61.50;44.50;;;;;-0.24;65.20;99980.75;6282048;20;2856564;-43
2022/03/08 06:22:35;;;;;;;;;68.00;49.00;;;;;0.01;64.65;99983.03;6280616;20;2498362;-44
2022/03/08 06:25:05;;;;;;;;;66.00;47.00;;;;;-0.11;65.55;99984.06;6281097;20;2876756;-47
2022/03/08 06:27:34;;;;;;;;;67.00;51.00;;;;;0.19;64.10;99989.84;6282439;20;2873160;-45
2022/03/08 06:30:05;;;;;;;;;18.00;10.00;;;;;0.32;63.68;99988.75;6279648;20;2802335;-49
2022/03/08 06:32:34;;;;;;;;;70.33;51.00;;;;;0.45;63.22;99986.81;6286692;20;2889863;-45
2022/03/08 06:35:04;;;;;;;;;54.00;44.50;;;;;0.70;63.45;99991.69;6314721;20;2852422;-43
2022/03/08 06:37:34;;;;;;;;;59.50;45.00;;;;;0.95;62.53;99993.03;6283492;20;2862764;-44
2022/03/08 06:40:02;;;;;;;;;54.00;47.50;;;;;0.98;62.78;99987.69;6277508;20;2496192;-46
2022/03/08 06:42:31;;;;;;;;;58.50;46.50;;;;;0.85;62.85;99991.44;6286121;20;2846247;-43
2022/03/08 06:45:00;;;;;;;;;60.00;44.00;;;;;0.91;62.87;99991.31;6284372;20;2854452;-43
2022/03/08 06:47:28;;;;;;;;;61.50;45.00;;;;;1.20;62.49;99987.28;6279119;20;2500260;-43
2022/03/08 06:49:57;;;;;;;;;52.50;44.50;;;;;0.99;63.01;99986.75;6282607;20;2857530;-42
2022/03/08 06:52:26;;;;;;;;;55.00;44.00;;;;;1.18;62.78;99987.28;6282493;20;2865890;-43
2022/03/08 06:54:55;;;;;;;;;61.33;44.33;;;;;1.38;62.45;99984.28;6285812;20;2888818;-43
2022/03/08 06:57:25;;;;;;;;;64.50;48.50;;;;;1.39;63.36;99985.16;6318716;20;2872706;-43
2022/03/08 06:59:54;;;;;;;;;70.50;55.50;;;;;1.51;62.83;99993.72;6287644;20;2881480;-42
2022/03/08 07:02:23;;;;;;;;;66.50;51.00;;;;;1.68;63.23;99980.16;6288018;20;2877349;-42
2022/03/08 07:04:51;;;;;;;;;63.50;51.50;;;;;1.86;62.27;99992.13;6283995;20;2493997;-43
2022/03/08 07:07:20;;;;;;;;;58.00;45.00;;;;;1.85;61.97;99987.75;6287701;20;2865934;-43
2022/03/08 07:09:48;;;;;;;;;55.50;45.50;;;;;1.86;62.62;99989.47;6283813;20;2494145;-44
2022/03/08 07:12:17;;;;;;;;;51.67;42.00;;;;;2.25;61.19;99991.31;6290771;20;2885782;-44
2022/03/08 07:14:46;;;;;;;;;44.50;39.50;;;;;3.31;59.79;99994.84;6320016;20;2863232;-45
2022/03/08 07:17:16;;;;;;;;;49.00;38.33;;;;;3.42;58.58;99998.09;6288734;20;2878374;-45
2022/03/08 07:19:47;;;;;;;;;4.40;4.40;;;;;2.99;59.24;99995.69;6360057;20;2633602;-42
2022/03/08 07:22:17;;;;;;;;;35.50;34.00;;;;;3.05;59.13;99993.75;6292597;20;2672146;-44
2022/03/08 07:24:46;;;;;;;;;52.33;36.00;;;;;2.93;59.20;99993.22;6288355;20;3641945;-42
2022/03/08 07:27:15;;;;;;;;;47.00;38.50;;;;;2.74;59.69;99996.31;6318718;20;2870050;-43
2022/03/08 07:29:46;;;;;;;;;47.00;35.33;;;;;2.99;58.65;100001.84;6286609;20;2879404;-42
2022/03/08 07:32:16;;;;;;;;;43.67;36.33;;;;;2.45;58.64;99997.03;6321061;20;2863844;-43
2022/03/08 07:34:44;;;;;;;;;27.33;20.00;;;;;3.09;58.04;100007.81;6319263;20;3546084;-42
2022/03/08 07:37:13;;;;;;;;;41.00;34.50;;;;;2.98;58.09;100009.88;6315761;20;2851389;-43
2022/03/08 07:39:41;;;;;;;;;31.50;29.00;;;;;3.22;57.51;100013.66;6284023;20;2508640;-46
2022/03/08 07:42:09;;;;;;;;;26.00;25.00;;;;;3.35;56.56;100012.44;6284140;20;2500345;-45
2022/03/08 07:44:39;;;;;;;;;39.00;30.00;;;;;3.48;55.66;100012.97;6289232;20;2869038;-47
2022/03/08 07:47:09;;;;;;;;;38.33;29.33;;;;;4.06;54.84;100013.97;6287009;20;2868073;-45
2022/03/08 07:49:39;;;;;;;;;39.50;30.50;;;;;4.37;54.03;100021.00;6319882;20;2860814;-46
2022/03/08 07:52:08;;;;;;;;;37.00;29.50;;;;;4.08;54.19;100005.94;6288327;20;2851361;-43
2022/03/08 07:54:37;;;;;;;;;49.33;39.33;;;;;4.97;53.95;100014.63;6289624;20;2885748;-46
2022/03/08 07:57:06;;;;;;;;;34.00;31.00;;;;;4.76;51.81;100013.53;6318574;20;2853496;-45
2022/03/08 07:59:35;;;;;;;;;42.50;35.00;;;;;4.80;52.16;100014.34;6287938;20;2858658;-43
2022/03/08 08:02:04;;;;;;;;;36.00;33.00;;;;;5.61;50.71;100010.66;6287912;20;2845074;-46
2022/03/08 08:04:34;;;;;;;;;36.00;30.00;;;;;5.81;50.29;100002.81;6290466;20;2843013;-44
2022/03/08 08:07:03;;;;;;;;;31.50;27.00;;;;;4.77;51.50;100011.78;6288730;20;2858584;-44
2022/03/08 08:09:33;;;;;;;;;47.33;37.00;;;;;5.30;50.44;100009.09;6285760;20;2882644;-44
2022/03/08 08:12:02;;;;;;;;;22.00;21.33;;;;;6.10;48.81;100009.75;6317401;20;3562717;-44
2022/03/08 08:14:31;;;;;;;;;27.00;25.50;;;;;5.48;49.18;99997.78;6289439;20;2854444;-48
2022/03/08 08:17:00;;;;;;;;;28.00;24.00;;;;;5.20;49.39;100002.34;6287587;20;2848172;-49
2022/03/08 08:19:29;;;;;;;;;30.50;25.50;;;;;5.20;49.39;100002.34;6287087;20;2850292;-47
2022/03/08 08:21:57;;;;;;;;;32.50;27.00;;;;;5.35;49.88;99999.16;6289093;20;2854875;-44
2022/03/08 08:24:26;;;;;;;;;19.00;16.67;;;;;6.07;48.01;100003.66;6287928;20;3540849;-43
2022/03/08 08:26:54;;;;;;;;;24.00;24.00;;;;;5.71;48.72;100006.72;6287279;20;2840985;-43
2022/03/08 08:29:23;;;;;;;;;51.50;42.00;;;;;6.60;46.86;100008.69;6286580;20;2861731;-43
2022/03/08 08:31:52;;;;;;;;;25.50;24.50;;;;;6.62;47.18;100003.31;6286124;20;2849214;-46
2022/03/08 08:34:19;;;;;;;;;27.00;24.00;;;;;6.44;46.57;100004.91;6284871;20;2492030;-46
2022/03/08 08:36:48;;;;;;;;;29.00;25.00;;;;;6.74;47.06;100005.47;6288450;20;3588943;-46
2022/03/08 08:39:20;;;;;;;;;30.00;28.00;;;;;5.78;48.04;100007.41;6283427;20;2498188;-48
2022/03/08 08:41:48;;;;;;;;;27.00;24.00;;;;;6.55;47.09;100000.00;6289760;20;2845067;-48
2022/03/08 08:44:19;;;;;;;;;33.50;31.50;;;;;6.17;46.84;99997.06;6287701;20;2854477;-50
2022/03/08 08:46:47;;;;;;;;;32.00;24.00;;;;;6.21;47.89;100000.47;6286160;20;2500294;-46
2022/03/08 08:49:15;;;;;;;;;16.00;14.00;;;;;6.29;46.74;100001.94;6288426;20;2805623;-46
2022/03/08 08:51:43;;;;;;;;;24.00;23.00;;;;;6.30;46.37;100001.00;6287081;20;3571040;-45
2022/03/08 08:54:12;;;;;;;;;23.33;19.00;;;;;6.79;44.89;100003.47;6284484;20;3571060;-47
2022/03/08 08:56:41;;;;;;;;;69.00;58.00;;;;;6.61;44.41;100002.44;6314406;20;2857731;-47
2022/03/08 08:59:10;;;;;;;;;45.00;38.00;;;;;6.39;45.00;99994.41;6285290;20;3582562;-46
2022/03/08 09:01:39;;;;;;;;;32.50;26.50;;;;;7.19;43.35;100007.19;6316318;20;2851442;-45
2022/03/08 09:04:08;;;;;;;;;29.50;25.00;;;;;6.61;44.36;99994.44;6286666;20;2846215;-46
2022/03/08 09:06:37;;;;;;;;;35.00;35.00;;;;;7.23;43.51;100014.97;6285921;20;2858684;-49
2022/03/08 09:09:05;;;;;;;;;25.00;24.00;;;;;6.68;45.17;100001.25;6289132;20;2831490;-45
2022/03/08 09:11:37;;;;;;;;;24.67;15.33;;;;;7.30;43.54;100001.38;6286919;20;3564804;-45
2022/03/08 09:14:06;;;;;;;;;20.00;15.33;;;;;7.37;43.76;100000.16;6287997;20;2822226;-46
2022/03/08 09:16:38;;;;;;;;;12.00;11.00;;;;;7.13;43.65;100004.75;6358104;20;1804465;-44
2022/03/08 09:19:06;;;;;;;;;21.00;14.00;;;;;6.95;43.94;99995.72;6314911;20;2492331;-46
2022/03/08 09:21:34;;;;;;;;;20.00;16.50;;;;;6.15;44.24;99996.25;6285167;20;2813811;-48
2022/03/08 09:24:02;;;;;;;;;28.50;23.00;;;;;6.54;44.28;99993.81;6287089;20;2500272;-46
2022/03/08 09:26:30;;;;;;;;;12.00;10.50;;;;;6.03;45.98;100002.03;6284334;20;2789025;-44
2022/03/08 09:28:58;;;;;;;;;29.50;24.50;;;;;7.21;45.40;100005.28;6283905;20;2498198;-45
2022/03/08 09:31:27;;;;;;;;;21.33;19.00;;;;;8.13;40.75;99995.84;6283253;20;3547217;-45
2022/03/08 09:33:56;;;;;;;;;33.00;28.00;;;;;7.79;41.88;99988.50;6316462;20;2848156;-45
2022/03/08 09:36:24;;;;;;;;;21.00;17.00;;;;;6.91;43.38;99997.66;6286044;20;2820099;-45
2022/03/08 09:38:53;;;;;;;;;16.67;13.67;;;;;7.01;42.96;99998.16;6281973;20;2817015;-45
2022/03/08 09:41:22;;;;;;;;;37.00;34.50;;;;;7.77;42.47;100004.63;6318531;20;2838811;-45
2022/03/08 09:43:51;;;;;;;;;13.00;13.00;;;;;8.02;40.96;100001.69;6285795;20;2816975;-44
2022/03/08 09:46:20;;;;;;;;;25.00;21.00;;;;;8.48;40.57;100004.06;6287039;20;2844025;-45
2022/03/08 09:48:49;;;;;;;;;11.50;11.50;;;;;7.56;40.46;100000.25;6285521;20;2786749;-44
2022/03/08 09:51:18;;;;;;;;;11.33;10.33;;;;;6.17;42.80;100005.06;6287469;20;3498344;-46
2022/03/08 09:53:54;;;;;;;;;16.00;15.00;;;;;7.20;41.67;100000.91;6314750;20;2827349;-45
2022/03/08 09:56:23;;;;;;;;;22.00;21.00;;;;;7.59;41.27;100000.97;6288290;20;3557496;-45
2022/03/08 09:58:51;;;;;;;;;12.00;11.50;;;;;6.15;42.42;100001.56;6311593;20;2789937;-44
2022/03/08 10:01:20;;;;;;;;;14.00;14.00;;;;;6.32;42.75;100001.81;6285741;20;2814983;-48
2022/03/08 10:03:50;;;;;;;;;16.50;14.00;;;;;6.18;42.70;100006.78;6317068;20;2798352;-49
2022/03/08 10:06:19;;;;;;;;;17.00;16.00;;;;;6.58;42.41;100003.44;6285632;20;3567000;-45
2022/03/08 10:08:48;;;;;;;;;10.50;8.00;;;;;6.73;41.76;99999.25;6336102;20;1803456;-45
2022/03/08 10:11:18;;;;;;;;;21.50;16.00;;;;;6.90;43.26;100000.38;6318211;20;2833573;-44
2022/03/08 10:13:53;;;;;;;;;18.00;17.00;;;;;6.62;42.25;100001.50;6287460;20;2821087;-45
2022/03/08 10:16:28;;;;;;;;;10.50;7.50;;;;;6.65;40.87;100001.38;6287286;20;2755580;-44
2022/03/08 10:19:02;;;;;;;;;9.00;8.00;;;;;6.96;40.08;100008.16;6318698;20;2751287;-45
2022/03/08 10:21:47;;;;;;;;;10.00;9.00;;;;;6.74;38.49;100010.81;6314835;20;2763846;-47
2022/03/08 10:24:25;;;;;;;;;13.00;11.00;;;;;7.37;37.52;100000.16;6281438;20;2793997;-51
2022/03/08 10:27:03;;;;;;;;;17.50;13.00;;;;;7.81;36.42;100006.22;6287121;20;2813804;-45
2022/03/08 10:29:37;;;;;;;;;11.00;9.20;;;;;7.75;37.07;100002.97;6309368;20;2773270;-44
2022/03/08 10:32:21;;;;;;;;;22.50;21.50;;;;;7.57;36.12;100008.19;6289314;20;2834779;-44
2022/03/08 10:34:58;;;;;;;;;9.00;9.00;;;;;7.62;36.66;99982.13;6295050;20;2739885;-45
2022/03/08 10:37:27;;;;;;;;;6.00;4.00;;;;;6.52;35.71;99992.13;6323220;20;2748169;-45
2022/03/08 10:40:00;;;;;;;;;10.50;10.50;;;;;7.00;35.44;99999.06;6292058;20;2794119;-44
2022/03/08 10:42:38;;;;;;;;;9.50;9.50;;;;;7.03;35.11;99997.16;6330553;20;1803416;-46
2022/03/08 10:45:16;;;;;;;;;34.00;34.00;;;;;7.47;34.04;100002.34;6292148;20;2862746;-44
2022/03/08 10:47:51;;;;;;;;;4.25;3.50;;;;;6.69;34.46;100000.34;6309475;20;1814566;-44
2022/03/08 10:50:28;;;;;;;;;9.00;6.00;;;;;7.14;34.45;99999.38;6321131;20;2755520;-46
2022/03/08 10:52:59;;;;;;;;;7.00;6.00;;;;;7.03;34.57;99996.28;6294058;20;2745047;-45
2022/03/08 10:55:58;;;;;;;;;9.00;9.00;;;;;6.86;34.46;100001.44;6344720;20;2780590;-45
2022/03/08 10:58:26;;;;;;;;;13.50;10.00;;;;;7.33;35.09;100009.25;6293227;20;2779427;-44
2022/03/08 11:00:56;;;;;;;;;5.67;5.00;;;;;7.20;35.02;100001.75;6291915;20;3472094;-44
2022/03/08 11:03:27;;;;;;;;;10.00;10.00;;;;;8.06;34.92;100005.97;6307385;20;1801402;-44
2022/03/08 11:06:05;;;;;;;;;8.50;7.00;;;;;7.33;36.16;99990.56;6320580;20;2742990;-44
2022/03/08 11:08:34;;;;;;;;;7.00;7.00;;;;;7.24;36.09;99995.38;6288386;20;2740890;-43
2022/03/08 11:11:01;;;;;;;;;16.50;13.50;;;;;6.87;37.57;99997.84;6289766;20;2808612;-44
2022/03/08 11:13:30;;;;;;;;;12.00;10.00;;;;;6.55;38.66;99994.69;6290305;20;2785692;-43
2022/03/08 11:15:58;;;;;;;;;5.50;1.50;;;;;6.86;38.36;99990.75;6307635;20;1808085;-44